createdAt,value
2018-12-12T00:00:05.635Z,88.30
2018-12-12T00:01:05.736Z,88.30
2018-12-12T00:02:05.875Z,88.30
2018-12-12T00:03:05.979Z,88.30
2018-12-12T00:04:07.559Z,88.40
2018-12-12T00:05:05.619Z,88.40
2018-12-12T00:06:05.770Z,88.40
2018-12-12T00:07:08.451Z,88.50
2018-12-12T00:08:08.010Z,88.40
2018-12-12T00:09:07.684Z,88.50
2018-12-12T00:10:05.797Z,88.50
2018-12-12T00:11:08.515Z,88.60
2018-12-12T00:12:05.657Z,88.50
2018-12-12T00:13:05.795Z,88.50
2018-12-12T00:14:06.170Z,88.50
2018-12-12T00:15:07.800Z,88.50
2018-12-12T00:16:08.283Z,88.50
2018-12-12T00:17:07.794Z,88.50
2018-12-12T00:18:08.427Z,88.50
2018-12-12T00:19:05.469Z,88.50
2018-12-12T00:20:05.640Z,88.50
2018-12-12T00:21:05.811Z,88.50
2018-12-12T00:22:05.967Z,88.50
2018-12-12T00:23:07.627Z,88.60
2018-12-12T00:24:08.211Z,88.60
2018-12-12T00:25:05.206Z,88.60
2018-12-12T00:26:12.876Z,88.60
2018-12-12T00:27:10.997Z,88.60
2018-12-12T00:28:05.055Z,88.50
2018-12-12T00:29:07.964Z,88.50
2018-12-12T00:30:06.101Z,88.50
2018-12-12T00:31:05.374Z,88.60
2018-12-12T00:32:05.554Z,88.60
2018-12-12T00:33:05.656Z,88.60
2018-12-12T00:34:05.810Z,88.60
2018-12-12T00:35:08.397Z,88.60
2018-12-12T00:36:05.341Z,88.60
2018-12-12T00:37:07.952Z,88.60
2018-12-12T00:38:06.086Z,88.60
2018-12-12T00:39:05.183Z,88.60
2018-12-12T00:40:05.302Z,88.80
2018-12-12T00:41:08.323Z,88.60
2018-12-12T00:42:05.548Z,88.60
2018-12-12T00:43:05.682Z,88.60
2018-12-12T00:44:08.752Z,88.60
2018-12-12T00:45:05.753Z,88.60
2018-12-12T00:46:08.466Z,88.60
2018-12-12T00:47:05.618Z,88.60
2018-12-12T00:48:05.898Z,88.60
2018-12-12T00:49:05.146Z,88.60
2018-12-12T00:50:05.283Z,88.60
2018-12-12T00:51:07.883Z,88.60
2018-12-12T00:52:05.820Z,88.60
2018-12-12T00:53:06.020Z,88.60
2018-12-12T00:54:05.238Z,88.60
2018-12-12T00:55:05.359Z,88.60
2018-12-12T00:56:05.504Z,88.60
2018-12-12T00:57:08.217Z,88.60
2018-12-12T00:58:07.763Z,88.60
2018-12-12T00:59:05.675Z,88.60
2018-12-12T01:00:05.898Z,88.60
2018-12-12T01:01:07.567Z,88.60
2018-12-12T01:02:08.072Z,88.60
2018-12-12T01:03:07.547Z,88.70
2018-12-12T01:04:05.517Z,88.70
2018-12-12T01:05:10.625Z,88.70
2018-12-12T01:06:08.357Z,88.70
2018-12-12T01:07:05.397Z,88.70
2018-12-12T01:08:05.518Z,88.60
2018-12-12T01:09:08.204Z,88.70
2018-12-12T01:10:05.188Z,88.70
2018-12-12T01:11:05.321Z,88.70
2018-12-12T01:12:08.147Z,88.70
2018-12-12T01:13:07.712Z,88.70
2018-12-12T01:14:08.197Z,88.70
2018-12-12T01:15:05.079Z,88.70
2018-12-12T01:16:07.711Z,88.70
2018-12-12T01:17:08.338Z,88.70
2018-12-12T01:18:07.868Z,88.70
2018-12-12T01:19:08.422Z,88.70
2018-12-12T01:20:05.483Z,88.70
2018-12-12T01:21:05.596Z,88.70
2018-12-12T01:22:05.804Z,88.70
2018-12-12T01:23:08.457Z,88.70
2018-12-12T01:24:05.408Z,88.60
2018-12-12T01:25:05.534Z,88.70
2018-12-12T01:26:05.750Z,88.70
2018-12-12T01:27:06.065Z,88.70
2018-12-12T01:28:05.233Z,88.70
2018-12-12T01:29:08.238Z,88.80
2018-12-12T01:30:05.199Z,88.80
2018-12-12T01:31:05.631Z,88.80
2018-12-12T01:32:05.790Z,88.80
2018-12-12T01:33:06.046Z,88.70
2018-12-12T01:34:07.692Z,88.80
2018-12-12T01:35:05.973Z,88.80
2018-12-12T01:36:07.677Z,88.80
2018-12-12T01:37:08.276Z,88.80
2018-12-12T01:38:07.763Z,88.80
2018-12-12T01:39:05.786Z,88.80
2018-12-12T01:40:05.951Z,88.80
2018-12-12T01:41:05.041Z,88.80
2018-12-12T01:42:05.167Z,88.80
2018-12-12T01:43:05.353Z,88.80
2018-12-12T01:44:05.473Z,88.90
2018-12-12T01:45:05.562Z,88.90
2018-12-12T01:46:05.701Z,88.90
2018-12-12T01:47:05.788Z,88.90
2018-12-12T01:48:08.462Z,88.90
2018-12-12T01:49:05.483Z,88.90
2018-12-12T01:50:05.610Z,88.90
2018-12-12T01:51:08.400Z,88.90
2018-12-12T01:52:05.410Z,88.90
2018-12-12T01:53:05.668Z,88.90
2018-12-12T01:54:13.531Z,88.90
2018-12-12T01:55:07.965Z,89.00
2018-12-12T01:56:05.912Z,89.10
2018-12-12T01:57:05.016Z,89.00
2018-12-12T01:58:05.084Z,89.00
2018-12-12T01:59:05.231Z,89.00
2018-12-12T02:00:05.528Z,89.10
2018-12-12T02:01:05.842Z,89.10
2018-12-12T02:02:05.973Z,89.10
2018-12-12T02:03:10.093Z,89.10
2018-12-12T02:04:05.148Z,89.10
2018-12-12T02:05:05.256Z,89.20
2018-12-12T02:06:07.982Z,89.10
2018-12-12T02:07:07.086Z,89.10
2018-12-12T02:08:05.218Z,89.20
2018-12-12T02:09:10.538Z,89.10
2018-12-12T02:10:08.032Z,89.20
2018-12-12T02:11:12.608Z,89.10
2018-12-12T02:12:05.589Z,89.20
2018-12-12T02:13:05.674Z,89.20
2018-12-12T02:14:08.285Z,89.10
2018-12-12T02:15:05.197Z,89.10
2018-12-12T02:16:05.356Z,89.30
2018-12-12T02:17:05.513Z,89.10
2018-12-12T02:18:08.088Z,89.30
2018-12-12T02:19:07.566Z,89.10
2018-12-12T02:20:08.140Z,89.10
2018-12-12T02:21:05.299Z,89.10
2018-12-12T02:22:05.441Z,89.10
2018-12-12T02:23:05.700Z,89.20
2018-12-12T02:24:05.806Z,89.20
2018-12-12T02:25:05.892Z,89.20
2018-12-12T02:26:05.954Z,89.30
2018-12-12T02:27:07.577Z,89.20
2018-12-12T02:28:05.532Z,89.30
2018-12-12T02:29:05.612Z,89.30
2018-12-12T02:30:05.864Z,89.30
2018-12-12T02:31:05.031Z,89.30
2018-12-12T02:32:05.272Z,89.30
2018-12-12T02:33:05.954Z,89.30
2018-12-12T02:34:05.094Z,89.30
2018-12-12T02:35:05.248Z,89.30
2018-12-12T02:36:07.897Z,89.30
2018-12-12T02:37:05.888Z,89.20
2018-12-12T02:38:06.005Z,89.20
2018-12-12T02:39:07.783Z,89.20
2018-12-12T02:40:05.882Z,89.20
2018-12-12T02:41:07.657Z,89.20
2018-12-12T02:42:05.677Z,89.20
2018-12-12T02:43:08.290Z,89.10
2018-12-12T02:44:05.223Z,89.10
2018-12-12T02:45:05.471Z,89.10
2018-12-12T02:46:08.265Z,89.10
2018-12-12T02:47:05.275Z,89.10
2018-12-12T02:48:07.952Z,89.10
2018-12-12T02:49:06.007Z,89.10
2018-12-12T02:50:07.716Z,89.10
2018-12-12T02:51:08.286Z,89.00
2018-12-12T02:52:07.777Z,89.00
2018-12-12T02:53:05.929Z,89.00
2018-12-12T02:54:05.120Z,89.00
2018-12-12T02:55:05.312Z,88.90
2018-12-12T02:56:07.867Z,88.90
2018-12-12T02:57:05.974Z,88.90
2018-12-12T02:58:05.148Z,88.80
2018-12-12T02:59:07.755Z,88.90
2018-12-12T03:00:08.250Z,88.70
2018-12-12T03:01:07.907Z,88.80
2018-12-12T03:02:13.640Z,88.60
2018-12-12T03:03:05.707Z,88.60
2018-12-12T03:04:08.346Z,88.50
2018-12-12T03:05:07.840Z,88.50
2018-12-12T03:06:05.853Z,88.50
2018-12-12T03:07:05.340Z,88.40
2018-12-12T03:08:08.079Z,88.40
2018-12-12T03:09:07.750Z,88.40
2018-12-12T03:10:05.789Z,88.40
2018-12-12T03:11:05.894Z,88.40
2018-12-12T03:12:05.004Z,88.40
2018-12-12T03:13:05.151Z,88.40
2018-12-12T03:14:05.266Z,88.40
2018-12-12T03:15:08.074Z,88.30
2018-12-12T03:16:10.145Z,88.30
2018-12-12T03:17:05.149Z,88.30
2018-12-12T03:18:07.752Z,88.30
2018-12-12T03:19:08.249Z,88.30
2018-12-12T03:20:07.849Z,88.30
2018-12-12T03:21:05.894Z,88.30
2018-12-12T03:22:05.006Z,88.30
2018-12-12T03:23:05.295Z,88.30
2018-12-12T03:24:05.470Z,88.30
2018-12-12T03:25:05.688Z,88.30
2018-12-12T03:26:08.308Z,88.30
2018-12-12T03:27:07.811Z,88.40
2018-12-12T03:28:05.824Z,88.40
2018-12-12T03:29:05.939Z,88.40
2018-12-12T03:30:05.064Z,88.40
2018-12-12T03:31:05.288Z,88.50
2018-12-12T03:32:08.087Z,88.40
2018-12-12T03:33:05.155Z,88.40
2018-12-12T03:34:07.886Z,88.50
2018-12-12T03:35:08.473Z,88.40
2018-12-12T03:36:08.010Z,88.50
2018-12-12T03:37:05.019Z,88.50
2018-12-12T03:38:07.647Z,88.50
2018-12-12T03:39:05.764Z,88.60
2018-12-12T03:40:05.951Z,88.50
2018-12-12T03:41:05.434Z,88.50
2018-12-12T03:42:05.565Z,88.60
2018-12-12T03:43:08.201Z,88.40
2018-12-12T03:44:05.153Z,88.50
2018-12-12T03:45:05.381Z,88.40
2018-12-12T03:46:05.651Z,88.40
2018-12-12T03:47:05.797Z,88.40
2018-12-12T03:48:05.926Z,88.50
2018-12-12T03:49:05.159Z,88.50
2018-12-12T03:50:05.421Z,88.50
2018-12-12T03:51:10.638Z,88.50
2018-12-12T03:52:05.601Z,88.50
2018-12-12T03:53:05.866Z,88.60
2018-12-12T03:54:07.572Z,88.60
2018-12-12T03:55:05.551Z,88.60
2018-12-12T03:56:05.726Z,88.60
2018-12-12T03:57:05.850Z,88.60
2018-12-12T03:58:08.473Z,88.60
2018-12-12T03:59:05.546Z,88.60
2018-12-12T04:00:07.701Z,88.60
2018-12-12T04:01:08.377Z,88.80
2018-12-12T04:02:05.447Z,88.70
2018-12-12T04:03:08.101Z,88.70
2018-12-12T04:04:05.012Z,88.70
2018-12-12T04:05:05.662Z,88.80
2018-12-12T04:06:05.719Z,88.80
2018-12-12T04:07:05.979Z,88.80
2018-12-12T04:08:07.730Z,88.90
2018-12-12T04:09:08.267Z,88.90
2018-12-12T04:10:07.785Z,89.00
2018-12-12T04:11:05.779Z,89.00
2018-12-12T04:12:05.861Z,89.10
2018-12-12T04:13:08.439Z,89.10
2018-12-12T04:14:05.532Z,89.10
2018-12-12T04:15:08.172Z,89.10
2018-12-12T04:16:07.694Z,89.10
2018-12-12T04:17:05.650Z,89.10
2018-12-12T04:18:08.285Z,89.10
2018-12-12T04:19:07.870Z,89.20
2018-12-12T04:20:08.400Z,89.20
2018-12-12T04:21:07.943Z,89.20
2018-12-12T04:22:06.029Z,89.20
2018-12-12T04:23:05.308Z,89.20
2018-12-12T04:24:05.556Z,89.40
2018-12-12T04:25:08.197Z,89.40
2018-12-12T04:26:05.357Z,89.40
2018-12-12T04:27:05.541Z,89.40
2018-12-12T04:28:05.595Z,89.50
2018-12-12T04:29:07.682Z,89.60
2018-12-12T04:30:05.713Z,89.60
2018-12-12T04:31:05.800Z,89.60
2018-12-12T04:32:08.504Z,89.70
2018-12-12T04:33:05.524Z,89.70
2018-12-12T04:34:05.734Z,89.60
2018-12-12T04:35:05.937Z,89.70
2018-12-12T04:36:07.610Z,89.70
2018-12-12T04:37:08.119Z,89.70
2018-12-12T04:38:05.226Z,89.70
2018-12-12T04:39:05.528Z,89.80
2018-12-12T04:40:05.882Z,89.70
2018-12-12T04:41:12.731Z,89.80
2018-12-12T04:42:05.773Z,89.80
2018-12-12T04:43:05.889Z,89.60
2018-12-12T04:44:05.070Z,89.70
2018-12-12T04:45:07.739Z,89.70
2018-12-12T04:46:05.793Z,89.80
2018-12-12T04:47:05.947Z,89.80
2018-12-12T04:48:05.015Z,89.80
2018-12-12T04:49:07.827Z,89.80
2018-12-12T04:50:05.851Z,89.80
2018-12-12T04:51:05.976Z,89.80
2018-12-12T04:52:05.190Z,89.80
2018-12-12T04:53:05.427Z,89.80
2018-12-12T04:54:05.516Z,89.80
2018-12-12T04:55:05.607Z,89.80
2018-12-12T04:56:05.689Z,89.80
2018-12-12T04:57:05.795Z,89.80
2018-12-12T04:58:05.953Z,89.80
2018-12-12T04:59:07.619Z,89.80
2018-12-12T05:00:05.598Z,89.70
2018-12-12T05:01:10.772Z,89.80
2018-12-12T05:02:08.283Z,89.70
2018-12-12T05:03:05.274Z,89.70
2018-12-12T05:04:05.392Z,89.70
2018-12-12T05:05:08.176Z,89.90
2018-12-12T05:06:08.068Z,89.60
2018-12-12T05:07:05.043Z,89.60
2018-12-12T05:08:05.202Z,89.60
2018-12-12T05:09:05.397Z,89.70
2018-12-12T05:10:05.538Z,89.60
2018-12-12T05:11:10.878Z,89.70
2018-12-12T05:12:05.940Z,89.60
2018-12-12T05:13:05.191Z,89.60
2018-12-12T05:14:05.431Z,89.60
2018-12-12T05:15:05.575Z,89.60
2018-12-12T05:16:05.712Z,89.60
2018-12-12T05:17:05.868Z,89.60
2018-12-12T05:18:06.000Z,89.60
2018-12-12T05:19:07.629Z,89.60
2018-12-12T05:20:08.304Z,89.50
2018-12-12T05:21:07.926Z,89.50
2018-12-12T05:22:08.591Z,89.50
2018-12-12T05:23:08.187Z,89.50
2018-12-12T05:24:05.246Z,89.50
2018-12-12T05:25:08.346Z,89.60
2018-12-12T05:26:07.848Z,89.50
2018-12-12T05:27:05.898Z,89.60
2018-12-12T05:28:05.112Z,89.50
2018-12-12T05:29:08.179Z,89.40
2018-12-12T05:30:05.190Z,89.40
2018-12-12T05:31:07.893Z,89.40
2018-12-12T05:32:05.986Z,89.40
2018-12-12T05:33:07.658Z,89.40
2018-12-12T05:34:05.747Z,89.40
2018-12-12T05:35:05.893Z,89.40
2018-12-12T05:36:05.108Z,89.40
2018-12-12T05:37:05.240Z,89.40
2018-12-12T05:38:05.325Z,89.40
2018-12-12T05:39:08.007Z,89.40
2018-12-12T05:40:04.960Z,89.40
2018-12-12T05:41:05.098Z,89.40
2018-12-12T05:42:05.327Z,89.40
2018-12-12T05:43:05.496Z,89.40
2018-12-12T05:44:08.159Z,89.30
2018-12-12T05:45:05.371Z,89.30
2018-12-12T05:46:05.492Z,89.30
2018-12-12T05:47:08.289Z,89.40
2018-12-12T05:48:07.872Z,89.30
2018-12-12T05:49:08.446Z,89.20
2018-12-12T05:50:05.462Z,89.30
2018-12-12T05:51:05.556Z,89.30
2018-12-12T05:52:05.661Z,89.30
2018-12-12T05:53:05.939Z,89.20
2018-12-12T05:54:05.185Z,89.10
2018-12-12T05:55:05.315Z,89.10
2018-12-12T05:56:05.447Z,89.10
2018-12-12T05:57:05.713Z,89.00
2018-12-12T05:58:08.597Z,89.10
2018-12-12T05:59:05.601Z,89.10
2018-12-12T06:00:05.709Z,89.10
2018-12-12T06:01:08.389Z,89.10
2018-12-12T06:02:05.368Z,89.10
2018-12-12T06:03:05.501Z,89.10
2018-12-12T06:04:08.226Z,89.00
2018-12-12T06:05:07.917Z,89.00
2018-12-12T06:06:05.985Z,89.10
2018-12-12T06:07:07.662Z,89.00
2018-12-12T06:08:08.649Z,89.00
2018-12-12T06:09:08.147Z,88.90
2018-12-12T06:10:07.662Z,88.90
2018-12-12T06:11:05.642Z,88.90
2018-12-12T06:12:05.798Z,88.90
2018-12-12T06:13:06.048Z,88.90
2018-12-12T06:14:05.360Z,88.90
2018-12-12T06:15:05.490Z,88.90
2018-12-12T06:16:05.681Z,88.80
2018-12-12T06:17:05.718Z,88.80
2018-12-12T06:18:08.330Z,88.80
2018-12-12T06:19:05.489Z,88.80
2018-12-12T06:20:08.460Z,88.80
2018-12-12T06:21:05.594Z,88.80
2018-12-12T06:22:08.239Z,88.70
2018-12-12T06:23:05.182Z,88.70
2018-12-12T06:24:05.322Z,88.60
2018-12-12T06:25:05.422Z,88.60
2018-12-12T06:26:08.006Z,88.60
2018-12-12T06:27:08.016Z,88.60
2018-12-12T06:28:05.049Z,88.60
2018-12-12T06:29:05.187Z,88.60
2018-12-12T06:30:08.018Z,88.50
2018-12-12T06:31:07.680Z,88.50
2018-12-12T06:32:05.658Z,88.50
2018-12-12T06:33:05.753Z,88.50
2018-12-12T06:34:06.024Z,88.50
2018-12-12T06:35:05.351Z,88.50
2018-12-12T06:36:05.708Z,88.50
2018-12-12T06:37:06.027Z,88.40
2018-12-12T06:38:10.268Z,88.50
2018-12-12T06:39:05.341Z,88.40
2018-12-12T06:40:05.645Z,88.40
2018-12-12T06:41:05.702Z,88.40
2018-12-12T06:42:05.840Z,88.40
2018-12-12T06:43:08.552Z,88.40
2018-12-12T06:44:05.728Z,88.40
2018-12-12T06:45:05.907Z,88.40
2018-12-12T06:46:05.019Z,88.40
2018-12-12T06:47:05.333Z,88.40
2018-12-12T06:48:05.444Z,88.40
2018-12-12T06:49:05.546Z,88.40
2018-12-12T06:50:10.736Z,88.30
2018-12-12T06:51:09.054Z,88.30
2018-12-12T06:52:05.125Z,88.30
2018-12-12T06:53:05.396Z,88.30
2018-12-12T06:54:10.724Z,88.30
2018-12-12T06:55:05.860Z,88.30
2018-12-12T06:56:05.062Z,88.30
2018-12-12T06:57:08.465Z,88.30
2018-12-12T06:58:05.464Z,88.30
2018-12-12T06:59:08.178Z,88.30
2018-12-12T07:00:10.306Z,88.40
2018-12-12T07:01:05.567Z,88.30
2018-12-12T07:02:05.782Z,88.30
2018-12-12T07:03:05.894Z,88.30
2018-12-12T07:04:07.518Z,88.30
2018-12-12T07:05:05.595Z,88.30
2018-12-12T07:06:10.225Z,88.40
2018-12-12T07:07:05.271Z,88.40
2018-12-12T07:08:05.418Z,88.30
2018-12-12T07:09:05.599Z,88.40
2018-12-12T07:10:05.879Z,88.40
2018-12-12T07:11:07.777Z,88.40
2018-12-12T07:12:08.279Z,88.40
2018-12-12T07:13:10.281Z,88.40
2018-12-12T07:14:05.268Z,88.40
2018-12-12T07:15:05.438Z,88.40
2018-12-12T07:16:05.669Z,88.40
2018-12-12T07:17:05.942Z,88.40
2018-12-12T07:18:05.150Z,88.40
2018-12-12T07:19:05.261Z,88.40
2018-12-12T07:20:05.541Z,88.40
2018-12-12T07:21:05.786Z,88.40
2018-12-12T07:22:08.411Z,88.40
2018-12-12T07:23:05.365Z,88.40
2018-12-12T07:24:05.512Z,88.50
2018-12-12T07:25:08.279Z,88.40
2018-12-12T07:26:05.255Z,88.40
2018-12-12T07:27:05.432Z,88.40
2018-12-12T07:28:05.634Z,88.50
2018-12-12T07:29:08.395Z,88.40
2018-12-12T07:30:08.019Z,88.50
2018-12-12T07:31:07.763Z,88.50
2018-12-12T07:32:05.840Z,88.50
2018-12-12T07:33:06.007Z,88.50
2018-12-12T07:34:05.161Z,88.50
2018-12-12T07:35:05.230Z,88.60
2018-12-12T07:36:05.490Z,88.60
2018-12-12T07:37:08.325Z,88.60
2018-12-12T07:38:05.328Z,88.60
2018-12-12T07:39:18.388Z,88.60
2018-12-12T07:40:15.823Z,88.60
2018-12-12T07:41:08.497Z,88.60
2018-12-12T07:42:08.001Z,88.60
2018-12-12T07:43:06.008Z,88.60
2018-12-12T07:44:05.164Z,88.60
2018-12-12T07:45:05.478Z,88.70
2018-12-12T07:46:08.355Z,88.70
2018-12-12T07:47:05.434Z,88.70
2018-12-12T07:48:08.045Z,88.70
2018-12-12T07:49:07.679Z,88.60
2018-12-12T07:50:05.778Z,88.70
2018-12-12T07:51:08.625Z,88.70
2018-12-12T07:52:08.292Z,88.70
2018-12-12T07:53:05.423Z,88.70
2018-12-12T07:54:08.170Z,88.70
2018-12-12T07:55:07.747Z,88.60
2018-12-12T07:56:08.346Z,88.80
2018-12-12T07:57:05.516Z,88.80
2018-12-12T07:58:05.760Z,88.80
2018-12-12T07:59:05.836Z,88.60
2018-12-12T08:00:08.232Z,88.80
2018-12-12T08:01:12.930Z,88.80
2018-12-12T08:02:08.495Z,88.70
2018-12-12T08:03:06.948Z,88.70
2018-12-12T08:04:04.995Z,88.70
2018-12-12T08:05:05.215Z,88.80
2018-12-12T08:06:05.468Z,88.60
2018-12-12T08:07:05.754Z,88.80
2018-12-12T08:08:08.625Z,88.80
2018-12-12T08:09:05.321Z,88.80
2018-12-12T08:10:05.564Z,88.80
2018-12-12T08:11:08.176Z,88.80
2018-12-12T08:12:07.666Z,88.80
2018-12-12T08:13:05.736Z,88.70
2018-12-12T08:14:08.446Z,88.80
2018-12-12T08:15:05.446Z,88.80
2018-12-12T08:16:05.589Z,88.80
2018-12-12T08:17:08.223Z,88.70
2018-12-12T08:18:07.722Z,88.70
2018-12-12T08:19:05.757Z,88.70
2018-12-12T08:20:07.670Z,88.80
2018-12-12T08:21:05.694Z,88.80
2018-12-12T08:22:06.785Z,88.70
2018-12-12T08:23:08.479Z,88.70
2018-12-12T08:24:08.105Z,88.60
2018-12-12T08:25:10.302Z,88.70
2018-12-12T08:26:05.597Z,88.70
2018-12-12T08:27:08.231Z,88.70
2018-12-12T08:28:05.201Z,88.60
2018-12-12T08:29:08.225Z,88.80
2018-12-12T08:30:05.395Z,88.80
2018-12-12T08:31:08.212Z,88.70
2018-12-12T08:32:07.784Z,88.80
2018-12-12T08:33:11.522Z,88.80
2018-12-12T08:34:08.147Z,88.60
2018-12-12T08:35:05.301Z,88.60
2018-12-12T08:36:07.899Z,88.60
2018-12-12T08:37:05.951Z,88.60
2018-12-12T08:38:05.128Z,88.70
2018-12-12T08:39:10.441Z,88.60
2018-12-12T08:40:05.437Z,88.80
2018-12-12T08:41:08.119Z,88.80
2018-12-12T08:42:05.129Z,88.60
2018-12-12T08:43:07.895Z,88.60
2018-12-12T08:44:08.493Z,88.60
2018-12-12T08:45:05.597Z,88.60
2018-12-12T08:46:05.893Z,88.60
2018-12-12T08:47:07.555Z,88.60
2018-12-12T08:48:05.632Z,88.60
2018-12-12T08:49:05.110Z,88.80
2018-12-12T08:50:05.272Z,88.60
2018-12-12T08:51:05.459Z,88.60
2018-12-12T08:52:05.564Z,88.70
2018-12-12T08:53:06.181Z,88.70
2018-12-12T08:54:05.353Z,88.60
2018-12-12T08:55:10.542Z,88.80
2018-12-12T08:56:05.491Z,88.60
2018-12-12T08:57:05.605Z,88.70
2018-12-12T08:58:05.875Z,88.80
2018-12-12T08:59:08.526Z,88.80
2018-12-12T09:00:05.536Z,88.80
2018-12-12T09:01:05.599Z,88.80
2018-12-12T09:02:05.940Z,88.80
2018-12-12T09:03:05.146Z,88.80
2018-12-12T09:04:05.271Z,88.80
2018-12-12T09:05:05.417Z,88.60
2018-12-12T09:06:05.470Z,88.80
2018-12-12T09:07:08.142Z,88.60
2018-12-12T09:08:05.201Z,88.80
2018-12-12T09:09:07.853Z,88.80
2018-12-12T09:10:05.850Z,88.80
2018-12-12T09:11:10.995Z,88.80
2018-12-12T09:12:06.084Z,88.70
2018-12-12T09:13:05.254Z,88.80
2018-12-12T09:14:07.925Z,88.80
2018-12-12T09:15:05.965Z,88.80
2018-12-12T09:16:05.319Z,88.80
2018-12-12T09:17:10.207Z,88.80
2018-12-12T09:18:07.968Z,88.80
2018-12-12T09:19:12.725Z,88.70
2018-12-12T09:20:08.233Z,88.70
2018-12-12T09:21:05.179Z,88.70
2018-12-12T09:22:05.347Z,88.70
2018-12-12T09:23:05.559Z,88.60
2018-12-12T09:24:08.288Z,88.60
2018-12-12T09:25:07.870Z,88.60
2018-12-12T09:26:05.955Z,88.60
2018-12-12T09:27:05.032Z,88.60
2018-12-12T09:28:05.137Z,88.60
2018-12-12T09:29:05.762Z,88.60
2018-12-12T09:30:05.963Z,88.50
2018-12-12T09:31:07.686Z,88.50
2018-12-12T09:32:05.647Z,88.50
2018-12-12T09:33:05.851Z,88.60
2018-12-12T09:34:06.137Z,88.50
2018-12-12T09:35:07.850Z,88.50
2018-12-12T09:36:08.314Z,88.50
2018-12-12T09:37:05.333Z,88.50
2018-12-12T09:38:08.020Z,88.50
2018-12-12T09:39:05.013Z,88.50
2018-12-12T09:40:05.153Z,88.50
2018-12-12T09:41:07.817Z,88.50
2018-12-12T09:42:06.102Z,88.60
2018-12-12T09:43:05.324Z,88.60
2018-12-12T09:44:05.543Z,88.60
2018-12-12T09:45:05.710Z,88.60
2018-12-12T09:46:05.832Z,88.60
2018-12-12T09:47:08.490Z,88.60
2018-12-12T09:48:05.504Z,88.60
2018-12-12T09:49:05.013Z,88.60
2018-12-12T09:50:05.146Z,88.60
2018-12-12T09:51:07.716Z,88.60
2018-12-12T09:52:08.614Z,88.60
2018-12-12T09:53:08.176Z,88.60
2018-12-12T09:54:05.180Z,88.60
2018-12-12T09:55:07.752Z,88.60
2018-12-12T09:56:05.799Z,88.60
2018-12-12T09:57:05.872Z,88.60
2018-12-12T09:58:06.041Z,88.60
2018-12-12T09:59:05.356Z,88.60
2018-12-12T10:00:05.673Z,88.70
2018-12-12T10:01:06.800Z,88.80
2018-12-12T10:02:08.478Z,88.90
2018-12-12T10:03:07.182Z,88.80
2018-12-12T10:04:05.758Z,88.80
2018-12-12T10:05:08.402Z,88.90
2018-12-12T10:06:07.893Z,88.90
2018-12-12T10:07:05.900Z,88.90
2018-12-12T10:08:05.054Z,88.90
2018-12-12T10:09:05.189Z,88.80
2018-12-12T10:10:07.792Z,88.80
2018-12-12T10:11:08.255Z,88.80
2018-12-12T10:12:05.261Z,88.80
2018-12-12T10:13:08.037Z,88.80
2018-12-12T10:14:05.098Z,88.80
2018-12-12T10:15:05.326Z,88.70
2018-12-12T10:16:07.996Z,88.70
2018-12-12T10:17:06.072Z,88.70
2018-12-12T10:18:05.206Z,88.70
2018-12-12T10:19:07.933Z,88.60
2018-12-12T10:20:08.608Z,88.60
2018-12-12T10:21:05.613Z,88.60
2018-12-12T10:22:05.857Z,88.60
2018-12-12T10:23:05.383Z,88.70
2018-12-12T10:24:08.096Z,88.60
2018-12-12T10:25:05.072Z,88.70
2018-12-12T10:26:05.286Z,88.70
2018-12-12T10:27:07.946Z,88.70
2018-12-12T10:28:08.397Z,88.60
2018-12-12T10:29:07.901Z,88.70
2018-12-12T10:30:05.930Z,88.70
2018-12-12T10:31:07.684Z,88.60
2018-12-12T10:32:05.825Z,88.60
2018-12-12T10:33:08.574Z,88.60
2018-12-12T10:34:05.549Z,88.70
2018-12-12T10:35:05.723Z,88.70
2018-12-12T10:36:08.394Z,88.90
2018-12-12T10:37:07.959Z,88.90
2018-12-12T10:38:08.498Z,88.80
2018-12-12T10:39:05.617Z,88.80
2018-12-12T10:40:05.860Z,88.90
2018-12-12T10:41:07.567Z,88.90
2018-12-12T10:42:05.587Z,88.90
2018-12-12T10:43:08.223Z,88.90
2018-12-12T10:44:07.749Z,88.90
2018-12-12T10:45:05.704Z,88.90
2018-12-12T10:46:05.932Z,88.80
2018-12-12T10:47:12.755Z,89.00
2018-12-12T10:48:05.699Z,89.00
2018-12-12T10:49:08.467Z,89.10
2018-12-12T10:50:05.458Z,89.00
2018-12-12T10:51:05.531Z,89.10
2018-12-12T10:52:05.662Z,89.00
2018-12-12T10:53:05.892Z,89.20
2018-12-12T10:54:05.048Z,89.20
2018-12-12T10:55:10.383Z,89.20
2018-12-12T10:56:07.936Z,89.20
2018-12-12T10:57:06.158Z,89.30
2018-12-12T10:58:07.839Z,89.20
2018-12-12T10:59:05.869Z,89.30
2018-12-12T11:00:05.031Z,89.30
2018-12-12T11:01:07.809Z,89.30
2018-12-12T11:02:08.406Z,89.30
2018-12-12T11:03:08.043Z,89.30
2018-12-12T11:04:05.121Z,89.30
2018-12-12T11:05:07.849Z,89.40
2018-12-12T11:06:08.452Z,89.40
2018-12-12T11:07:07.995Z,89.40
2018-12-12T11:08:06.042Z,89.40
2018-12-12T11:09:05.220Z,89.40
2018-12-12T11:10:07.852Z,89.50
2018-12-12T11:11:05.901Z,89.50
2018-12-12T11:12:06.105Z,89.60
2018-12-12T11:13:05.241Z,89.60
2018-12-12T11:14:07.956Z,89.50
2018-12-12T11:15:10.991Z,89.50
2018-12-12T11:16:05.654Z,89.50
2018-12-12T11:17:08.422Z,89.40
2018-12-12T11:18:05.432Z,89.40
2018-12-12T11:19:05.582Z,89.40
2018-12-12T11:20:05.744Z,89.40
2018-12-12T11:21:05.863Z,89.40
2018-12-12T11:22:08.491Z,89.50
2018-12-12T11:23:07.967Z,89.40
2018-12-12T11:24:13.561Z,89.50
2018-12-12T11:25:05.499Z,89.50
2018-12-12T11:26:05.866Z,89.40
2018-12-12T11:27:05.988Z,89.40
2018-12-12T11:28:05.111Z,89.10
2018-12-12T11:29:05.777Z,88.90
2018-12-12T11:30:05.954Z,89.00
2018-12-12T11:31:07.603Z,89.00
2018-12-12T11:32:08.120Z,89.00
2018-12-12T11:33:07.619Z,89.00
2018-12-12T11:34:05.606Z,89.00
2018-12-12T11:35:08.243Z,89.10
2018-12-12T11:36:05.370Z,89.10
2018-12-12T11:37:08.059Z,89.10
2018-12-12T11:38:05.028Z,89.10
2018-12-12T11:39:05.166Z,88.90
2018-12-12T11:40:05.246Z,88.90
2018-12-12T11:41:05.458Z,88.80
2018-12-12T11:42:05.593Z,88.80
2018-12-12T11:43:05.769Z,88.80
2018-12-12T11:44:05.916Z,88.80
2018-12-12T11:45:05.037Z,88.80
2018-12-12T11:46:05.188Z,88.70
2018-12-12T11:47:07.827Z,88.60
2018-12-12T11:48:05.848Z,88.60
2018-12-12T11:49:05.990Z,88.40
2018-12-12T11:50:05.062Z,88.30
2018-12-12T11:51:05.168Z,88.40
2018-12-12T11:52:05.856Z,88.50
2018-12-12T11:53:08.466Z,88.40
2018-12-12T11:54:08.051Z,88.40
2018-12-12T11:55:05.059Z,88.40
2018-12-12T11:56:10.787Z,88.40
2018-12-12T11:57:05.815Z,88.40
2018-12-12T11:58:06.018Z,88.30
2018-12-12T11:59:05.299Z,88.30
2018-12-12T12:00:05.502Z,88.30
2018-12-12T12:01:08.275Z,88.40
2018-12-12T12:02:05.303Z,88.40
2018-12-12T12:03:05.491Z,88.40
2018-12-12T12:04:05.597Z,88.40
2018-12-12T12:05:08.364Z,88.40
2018-12-12T12:06:05.410Z,88.40
2018-12-12T12:07:08.001Z,88.20
2018-12-12T12:08:08.449Z,88.10
2018-12-12T12:09:05.524Z,88.10
2018-12-12T12:10:05.855Z,88.10
2018-12-12T12:11:06.067Z,88.10
2018-12-12T12:12:05.221Z,88.10
2018-12-12T12:13:12.905Z,88.10
2018-12-12T12:14:05.924Z,88.10
2018-12-12T12:15:05.148Z,88.10
2018-12-12T12:16:07.895Z,88.00
2018-12-12T12:17:08.477Z,88.20
2018-12-12T12:18:07.913Z,88.10
2018-12-12T12:19:06.011Z,88.30
2018-12-12T12:20:07.691Z,88.40
2018-12-12T12:21:05.745Z,88.20
2018-12-12T12:22:05.906Z,88.20
2018-12-12T12:23:07.545Z,88.20
2018-12-12T12:24:05.588Z,88.20
2018-12-12T12:25:08.212Z,88.40
2018-12-12T12:26:08.055Z,88.40
2018-12-12T12:27:05.087Z,88.40
2018-12-12T12:28:10.273Z,88.40
2018-12-12T12:29:05.285Z,88.40
2018-12-12T12:30:05.386Z,88.40
2018-12-12T12:31:05.496Z,88.40
2018-12-12T12:32:05.557Z,88.40
2018-12-12T12:33:05.837Z,88.40
2018-12-12T12:34:08.856Z,88.30
2018-12-12T12:35:08.370Z,88.10
2018-12-12T12:36:05.419Z,88.10
2018-12-12T12:37:05.581Z,87.90
2018-12-12T12:38:05.705Z,87.90
2018-12-12T12:39:05.810Z,87.90
2018-12-12T12:40:08.621Z,87.90
2018-12-12T12:41:08.143Z,87.90
2018-12-12T12:42:05.071Z,87.90
2018-12-12T12:43:07.839Z,87.90
2018-12-12T12:44:08.465Z,87.90
2018-12-12T12:45:05.467Z,87.90
2018-12-12T12:46:08.084Z,87.90
2018-12-12T12:47:05.038Z,87.90
2018-12-12T12:48:05.152Z,88.00
2018-12-12T12:49:08.306Z,88.00
2018-12-12T12:50:10.422Z,88.00
2018-12-12T12:51:08.007Z,88.00
2018-12-12T12:52:07.641Z,88.00